sensor_id;sensor_type;location;lat;lon;timestamp;pressure;altitude;pressure_sealevel;temperature;humidity
44441;BME280;30146;52.268;20.944;2023-05-27T00:02:12;101196.71;;;11.26;47.23
44441;BME280;30146;52.268;20.944;2023-05-27T00:04:43;101198.24;;;11.22;47.28
44441;BME280;30146;52.268;20.944;2023-05-27T00:07:15;101199.94;;;11.19;47.53
44441;BME280;30146;52.268;20.944;2023-05-27T00:09:46;101204.05;;;11.14;47.68
44441;BME280;30146;52.268;20.944;2023-05-27T00:12:17;101203.86;;;11.09;47.83
44441;BME280;30146;52.268;20.944;2023-05-27T00:14:48;101207.27;;;11.05;47.94
44441;BME280;30146;52.268;20.944;2023-05-27T00:17:19;101210.86;;;11.02;48.25
44441;BME280;30146;52.268;20.944;2023-05-27T00:19:52;101215.14;;;10.98;48.37
44441;BME280;30146;52.268;20.944;2023-05-27T00:22:26;101212.71;;;10.94;48.32
44441;BME280;30146;52.268;20.944;2023-05-27T00:24:58;101213.73;;;10.92;48.47
44441;BME280;30146;52.268;20.944;2023-05-27T00:27:29;101210.32;;;10.89;48.61
44441;BME280;30146;52.268;20.944;2023-05-27T00:30:00;101208.77;;;10.86;48.75
44441;BME280;30146;52.268;20.944;2023-05-27T00:32:32;101209.61;;;10.83;48.89
44441;BME280;30146;52.268;20.944;2023-05-27T00:35:04;101209.77;;;10.79;49.15
44441;BME280;30146;52.268;20.944;2023-05-27T00:37:35;101207.54;;;10.76;49.22
44441;BME280;30146;52.268;20.944;2023-05-27T00:40:09;101201.88;;;10.73;49.37
44441;BME280;30146;52.268;20.944;2023-05-27T00:42:41;101205.11;;;10.71;49.35
44441;BME280;30146;52.268;20.944;2023-05-27T00:45:13;101204.93;;;10.68;49.47
44441;BME280;30146;52.268;20.944;2023-05-27T00:47:44;101200.98;;;10.65;49.69
44441;BME280;30146;52.268;20.944;2023-05-27T00:50:17;101203.54;;;10.62;49.80
44441;BME280;30146;52.268;20.944;2023-05-27T00:52:48;101206.44;;;10.59;49.84
44441;BME280;30146;52.268;20.944;2023-05-27T00:55:20;101205.56;;;10.55;49.92
44441;BME280;30146;52.268;20.944;2023-05-27T00:57:51;101208.11;;;10.51;50.21
44441;BME280;30146;52.268;20.944;2023-05-27T01:00:24;101209.80;;;10.48;50.30
44441;BME280;30146;52.268;20.944;2023-05-27T01:02:57;101208.27;;;10.45;50.33
44441;BME280;30146;52.268;20.944;2023-05-27T01:05:28;101209.27;;;10.42;50.47
44441;BME280;30146;52.268;20.944;2023-05-27T01:08:07;101206.85;;;10.38;50.31
44441;BME280;30146;52.268;20.944;2023-05-27T01:10:46;101207.86;;;10.35;50.52
44441;BME280;30146;52.268;20.944;2023-05-27T01:13:24;101204.60;;;10.32;50.92
44441;BME280;30146;52.268;20.944;2023-05-27T01:16:02;101205.91;;;10.29;50.94
44441;BME280;30146;52.268;20.944;2023-05-27T01:18:36;101204.53;;;10.26;51.04
44441;BME280;30146;52.268;20.944;2023-05-27T01:21:12;101206.56;;;10.23;51.21
44441;BME280;30146;52.268;20.944;2023-05-27T01:23:45;101204.52;;;10.21;51.31
44441;BME280;30146;52.268;20.944;2023-05-27T01:26:18;101211.50;;;10.20;51.43
44441;BME280;30146;52.268;20.944;2023-05-27T01:28:49;101209.79;;;10.18;51.49
44441;BME280;30146;52.268;20.944;2023-05-27T01:31:23;101211.13;;;10.15;51.63
44441;BME280;30146;52.268;20.944;2023-05-27T01:34:01;101213.16;;;10.12;51.82
44441;BME280;30146;52.268;20.944;2023-05-27T01:36:36;101207.00;;;10.09;51.72
44441;BME280;30146;52.268;20.944;2023-05-27T01:39:10;101212.45;;;10.06;51.97
44441;BME280;30146;52.268;20.944;2023-05-27T01:41:43;101212.27;;;10.04;52.11
44441;BME280;30146;52.268;20.944;2023-05-27T01:44:17;101218.23;;;10.03;52.15
44441;BME280;30146;52.268;20.944;2023-05-27T01:46:49;101214.95;;;10.01;52.28
44441;BME280;30146;52.268;20.944;2023-05-27T01:49:20;101215.96;;;9.99;52.56
44441;BME280;30146;52.268;20.944;2023-05-27T01:51:54;101216.48;;;9.96;52.47
44441;BME280;30146;52.268;20.944;2023-05-27T01:54:25;101218.33;;;9.92;52.83
44441;BME280;30146;52.268;20.944;2023-05-27T01:56:56;101220.00;;;9.88;52.66
44441;BME280;30146;52.268;20.944;2023-05-27T01:59:27;101219.13;;;9.85;53.03
44441;BME280;30146;52.268;20.944;2023-05-27T02:01:59;101222.35;;;9.82;53.15
44441;BME280;30146;52.268;20.944;2023-05-27T02:04:30;101223.68;;;9.79;53.34
44441;BME280;30146;52.268;20.944;2023-05-27T02:07:01;101226.91;;;9.76;53.43
44441;BME280;30146;52.268;20.944;2023-05-27T02:09:32;101231.67;;;9.74;53.60
44441;BME280;30146;52.268;20.944;2023-05-27T02:12:04;101235.40;;;9.71;53.65
44441;BME280;30146;52.268;20.944;2023-05-27T02:14:39;101233.84;;;9.70;53.66
44441;BME280;30146;52.268;20.944;2023-05-27T02:17:10;101233.66;;;9.68;53.84
44441;BME280;30146;52.268;20.944;2023-05-27T02:19:45;101234.69;;;9.68;54.00
44441;BME280;30146;52.268;20.944;2023-05-27T02:22:16;101237.94;;;9.67;54.05
44441;BME280;30146;52.268;20.944;2023-05-27T02:24:47;101238.79;;;9.67;54.23
44441;BME280;30146;52.268;20.944;2023-05-27T02:27:19;101242.38;;;9.68;54.20
44441;BME280;30146;52.268;20.944;2023-05-27T02:29:50;101238.27;;;9.67;54.29
44441;BME280;30146;52.268;20.944;2023-05-27T02:32:22;101245.61;;;9.67;54.44
44441;BME280;30146;52.268;20.944;2023-05-27T02:34:53;101248.69;;;9.68;54.67
44441;BME280;30146;52.268;20.944;2023-05-27T02:37:25;101251.07;;;9.66;54.66
44441;BME280;30146;52.268;20.944;2023-05-27T02:39:57;101247.13;;;9.64;54.67
44441;BME280;30146;52.268;20.944;2023-05-27T02:42:29;101248.29;;;9.61;54.71
44441;BME280;30146;52.268;20.944;2023-05-27T02:45:00;101246.90;;;9.59;54.74
44441;BME280;30146;52.268;20.944;2023-05-27T02:47:33;101249.45;;;9.59;55.13
44441;BME280;30146;52.268;20.944;2023-05-27T02:50:06;101254.23;;;9.59;55.02
44441;BME280;30146;52.268;20.944;2023-05-27T02:52:38;101254.92;;;9.59;55.02
44441;BME280;30146;52.268;20.944;2023-05-27T02:55:10;101253.05;;;9.59;55.32
44441;BME280;30146;52.268;20.944;2023-05-27T02:57:41;101256.84;;;9.61;55.55
44441;BME280;30146;52.268;20.944;2023-05-27T03:00:14;101257.38;;;9.64;55.63
44441;BME280;30146;52.268;20.944;2023-05-27T03:02:45;101257.89;;;9.67;55.60
44441;BME280;30146;52.268;20.944;2023-05-27T03:05:19;101259.13;;;9.69;55.74
44441;BME280;30146;52.268;20.944;2023-05-27T03:07:51;101255.19;;;9.70;55.65
44441;BME280;30146;52.268;20.944;2023-05-27T03:10:26;101258.44;;;9.71;55.61
44441;BME280;30146;52.268;20.944;2023-05-27T03:12:59;101264.41;;;9.71;55.68
44441;BME280;30146;52.268;20.944;2023-05-27T03:15:30;101265.14;;;9.73;55.74
44441;BME280;30146;52.268;20.944;2023-05-27T03:18:02;101267.86;;;9.74;55.93
44441;BME280;30146;52.268;20.944;2023-05-27T03:20:34;101264.48;;;9.77;55.84
44441;BME280;30146;52.268;20.944;2023-05-27T03:23:05;101265.54;;;9.80;56.13
44441;BME280;30146;52.268;20.944;2023-05-27T03:25:36;101267.44;;;9.84;55.92
44441;BME280;30146;52.268;20.944;2023-05-27T03:28:07;101264.22;;;9.87;56.18
44441;BME280;30146;52.268;20.944;2023-05-27T03:30:39;101261.90;;;9.95;56.13
44441;BME280;30146;52.268;20.944;2023-05-27T03:33:10;101260.77;;;10.05;56.41
44441;BME280;30146;52.268;20.944;2023-05-27T03:35:41;101262.02;;;10.13;56.17
44441;BME280;30146;52.268;20.944;2023-05-27T03:38:14;101265.34;;;10.22;56.20
44441;BME280;30146;52.268;20.944;2023-05-27T03:40:46;101266.10;;;10.32;56.17
44441;BME280;30146;52.268;20.944;2023-05-27T03:43:18;101270.63;;;10.43;56.15
44441;BME280;30146;52.268;20.944;2023-05-27T03:45:49;101269.17;;;10.56;56.05
44441;BME280;30146;52.268;20.944;2023-05-27T03:48:20;101269.57;;;10.68;55.94
44441;BME280;30146;52.268;20.944;2023-05-27T03:50:51;101273.39;;;10.80;56.04
44441;BME280;30146;52.268;20.944;2023-05-27T03:53:23;101274.98;;;10.92;55.89
44441;BME280;30146;52.268;20.944;2023-05-27T03:55:54;101273.14;;;11.06;55.69
44441;BME280;30146;52.268;20.944;2023-05-27T03:58:25;101279.17;;;11.19;55.58
44441;BME280;30146;52.268;20.944;2023-05-27T04:00:56;101281.45;;;11.35;55.52
44441;BME280;30146;52.268;20.944;2023-05-27T04:03:27;101287.81;;;11.51;55.52
44441;BME280;30146;52.268;20.944;2023-05-27T04:05:58;101290.92;;;11.66;55.22
44441;BME280;30146;52.268;20.944;2023-05-27T04:08:30;101292.99;;;11.81;55.10
44441;BME280;30146;52.268;20.944;2023-05-27T04:11:01;101297.66;;;11.99;55.18
44441;BME280;30146;52.268;20.944;2023-05-27T04:13:33;101296.96;;;12.18;54.97
44441;BME280;30146;52.268;20.944;2023-05-27T04:16:04;101300.37;;;12.38;54.58
44441;BME280;30146;52.268;20.944;2023-05-27T04:18:35;101303.92;;;12.61;54.40
44441;BME280;30146;52.268;20.944;2023-05-27T04:21:06;101301.08;;;12.96;54.44
44441;BME280;30146;52.268;20.944;2023-05-27T04:23:38;101301.71;;;13.47;54.67
44441;BME280;30146;52.268;20.944;2023-05-27T04:26:10;101305.23;;;14.05;54.75
44441;BME280;30146;52.268;20.944;2023-05-27T04:28:44;101300.96;;;14.74;54.66
44441;BME280;30146;52.268;20.944;2023-05-27T04:31:16;101303.01;;;15.45;54.20
44441;BME280;30146;52.268;20.944;2023-05-27T04:33:52;101307.80;;;16.14;53.39
44441;BME280;30146;52.268;20.944;2023-05-27T04:36:24;101304.63;;;16.76;52.47
44441;BME280;30146;52.268;20.944;2023-05-27T04:39:01;101311.71;;;17.42;51.77
44441;BME280;30146;52.268;20.944;2023-05-27T04:41:33;101305.67;;;18.01;50.67
44441;BME280;30146;52.268;20.944;2023-05-27T04:44:28;101301.81;;;18.56;49.52
44441;BME280;30146;52.268;20.944;2023-05-27T04:47:01;101302.08;;;19.03;48.76
44441;BME280;30146;52.268;20.944;2023-05-27T04:49:32;101302.38;;;19.51;47.91
44441;BME280;30146;52.268;20.944;2023-05-27T04:52:04;101304.85;;;19.94;47.21
44441;BME280;30146;52.268;20.944;2023-05-27T04:54:36;101300.92;;;20.37;46.17
44441;BME280;30146;52.268;20.944;2023-05-27T04:57:13;101303.95;;;20.80;45.38
44441;BME280;30146;52.268;20.944;2023-05-27T04:59:48;101303.30;;;21.20;44.64
44441;BME280;30146;52.268;20.944;2023-05-27T05:02:47;101304.09;;;21.63;43.98
44441;BME280;30146;52.268;20.944;2023-05-27T05:05:19;101308.58;;;21.94;43.12
44441;BME280;30146;52.268;20.944;2023-05-27T05:07:51;101305.85;;;22.17;42.28
44441;BME280;30146;52.268;20.944;2023-05-27T05:10:23;101310.35;;;22.43;41.58
44441;BME280;30146;52.268;20.944;2023-05-27T05:12:54;101311.21;;;22.67;41.03
44441;BME280;30146;52.268;20.944;2023-05-27T05:15:26;101306.75;;;22.93;40.56
44441;BME280;30146;52.268;20.944;2023-05-27T05:17:57;101309.87;;;23.16;40.09
44441;BME280;30146;52.268;20.944;2023-05-27T05:20:30;101306.34;;;23.43;39.49
44441;BME280;30146;52.268;20.944;2023-05-27T05:23:03;101305.13;;;23.61;38.86
44441;BME280;30146;52.268;20.944;2023-05-27T05:25:34;101303.02;;;23.79;38.72
44441;BME280;30146;52.268;20.944;2023-05-27T05:28:08;101301.36;;;23.99;38.23
44441;BME280;30146;52.268;20.944;2023-05-27T05:30:39;101301.05;;;24.22;37.94
44441;BME280;30146;52.268;20.944;2023-05-27T05:33:11;101302.94;;;24.47;37.57
44441;BME280;30146;52.268;20.944;2023-05-27T05:35:43;101302.20;;;24.71;36.71
44441;BME280;30146;52.268;20.944;2023-05-27T05:38:24;101304.64;;;24.91;36.41
44441;BME280;30146;52.268;20.944;2023-05-27T05:40:59;101309.14;;;25.14;35.84
44441;BME280;30146;52.268;20.944;2023-05-27T05:43:31;101308.38;;;25.35;35.50
44441;BME280;30146;52.268;20.944;2023-05-27T05:46:02;101314.27;;;25.54;34.86
44441;BME280;30146;52.268;20.944;2023-05-27T05:48:33;101313.91;;;25.51;33.99
44441;BME280;30146;52.268;20.944;2023-05-27T05:51:05;101313.89;;;25.48;33.55
44441;BME280;30146;52.268;20.944;2023-05-27T05:53:37;101313.20;;;25.61;33.91
44441;BME280;30146;52.268;20.944;2023-05-27T05:56:08;101312.90;;;25.84;33.75
44441;BME280;30146;52.268;20.944;2023-05-27T05:58:39;101318.71;;;26.08;33.37
44441;BME280;30146;52.268;20.944;2023-05-27T06:01:11;101320.27;;;26.26;32.97
44441;BME280;30146;52.268;20.944;2023-05-27T06:03:43;101316.30;;;26.42;32.74
44441;BME280;30146;52.268;20.944;2023-05-27T06:06:29;101318.84;;;26.70;32.34
44441;BME280;30146;52.268;20.944;2023-05-27T06:09:30;101318.39;;;27.00;31.92
44441;BME280;30146;52.268;20.944;2023-05-27T06:12:06;101321.78;;;27.21;31.61
44441;BME280;30146;52.268;20.944;2023-05-27T06:14:43;101319.42;;;27.45;31.45
44441;BME280;30146;52.268;20.944;2023-05-27T06:17:18;101322.73;;;27.72;31.15
44441;BME280;30146;52.268;20.944;2023-05-27T06:19:49;101328.44;;;27.98;30.79
44441;BME280;30146;52.268;20.944;2023-05-27T06:22:20;101329.55;;;28.20;30.57
44441;BME280;30146;52.268;20.944;2023-05-27T06:24:59;101330.70;;;28.47;30.34
44441;BME280;30146;52.268;20.944;2023-05-27T06:27:48;101338.07;;;28.71;30.02
44441;BME280;30146;52.268;20.944;2023-05-27T06:30:19;101342.05;;;28.92;30.02
44441;BME280;30146;52.268;20.944;2023-05-27T06:32:52;101344.98;;;29.05;29.51
44441;BME280;30146;52.268;20.944;2023-05-27T06:35:29;101348.57;;;29.11;29.24
44441;BME280;30146;52.268;20.944;2023-05-27T06:38:01;101348.05;;;29.22;29.39
44441;BME280;30146;52.268;20.944;2023-05-27T06:40:33;101347.89;;;29.28;29.27
44441;BME280;30146;52.268;20.944;2023-05-27T06:43:04;101347.55;;;29.28;29.15
44441;BME280;30146;52.268;20.944;2023-05-27T06:45:55;101351.61;;;29.06;29.08
44441;BME280;30146;52.268;20.944;2023-05-27T06:48:49;101351.02;;;28.69;28.80
44441;BME280;30146;52.268;20.944;2023-05-27T06:51:21;101354.67;;;28.33;28.98
44441;BME280;30146;52.268;20.944;2023-05-27T06:53:53;101357.64;;;28.03;29.16
44441;BME280;30146;52.268;20.944;2023-05-27T06:56:30;101350.05;;;27.81;29.11
44441;BME280;30146;52.268;20.944;2023-05-27T06:59:25;101355.95;;;27.53;29.18
44441;BME280;30146;52.268;20.944;2023-05-27T07:01:57;101354.27;;;27.33;29.10
44441;BME280;30146;52.268;20.944;2023-05-27T07:04:29;101351.84;;;27.18;29.13
44441;BME280;30146;52.268;20.944;2023-05-27T07:07:03;101358.65;;;26.99;29.02
44441;BME280;30146;52.268;20.944;2023-05-27T07:09:35;101364.94;;;26.77;28.91
44441;BME280;30146;52.268;20.944;2023-05-27T07:12:07;101364.79;;;26.65;29.16
44441;BME280;30146;52.268;20.944;2023-05-27T07:14:53;101362.42;;;26.60;29.48
44441;BME280;30146;52.268;20.944;2023-05-27T07:17:26;101363.20;;;26.62;29.32
44441;BME280;30146;52.268;20.944;2023-05-27T07:19:57;101361.46;;;26.67;29.34
44441;BME280;30146;52.268;20.944;2023-05-27T07:22:30;101360.90;;;26.71;29.18
44441;BME280;30146;52.268;20.944;2023-05-27T07:25:01;101362.27;;;26.72;28.76
44441;BME280;30146;52.268;20.944;2023-05-27T07:27:39;101358.97;;;26.62;28.44
44441;BME280;30146;52.268;20.944;2023-05-27T07:30:12;101358.58;;;26.48;28.12
44441;BME280;30146;52.268;20.944;2023-05-27T07:32:59;101354.77;;;26.33;28.33
44441;BME280;30146;52.268;20.944;2023-05-27T07:35:30;101355.21;;;26.19;28.06
44441;BME280;30146;52.268;20.944;2023-05-27T07:38:03;101353.67;;;26.01;28.28
44441;BME280;30146;52.268;20.944;2023-05-27T07:40:39;101352.77;;;25.92;28.06
44441;BME280;30146;52.268;20.944;2023-05-27T07:43:10;101352.02;;;25.83;28.07
44441;BME280;30146;52.268;20.944;2023-05-27T07:45:42;101351.39;;;25.76;28.07
44441;BME280;30146;52.268;20.944;2023-05-27T07:48:13;101347.14;;;25.67;27.88
44441;BME280;30146;52.268;20.944;2023-05-27T07:50:45;101339.48;;;25.57;27.82
44441;BME280;30146;52.268;20.944;2023-05-27T07:53:19;101339.59;;;25.49;28.03
44441;BME280;30146;52.268;20.944;2023-05-27T07:55:57;101338.54;;;25.43;28.02
44441;BME280;30146;52.268;20.944;2023-05-27T07:58:29;101334.58;;;25.32;27.60
44441;BME280;30146;52.268;20.944;2023-05-27T08:01:11;101331.48;;;25.18;27.70
44441;BME280;30146;52.268;20.944;2023-05-27T08:03:45;101328.98;;;25.09;27.69
44441;BME280;30146;52.268;20.944;2023-05-27T08:06:33;101328.36;;;25.02;27.90
44441;BME280;30146;52.268;20.944;2023-05-27T08:09:24;101324.91;;;24.94;27.91
44441;BME280;30146;52.268;20.944;2023-05-27T08:12:15;101319.20;;;24.90;28.12
44441;BME280;30146;52.268;20.944;2023-05-27T08:15:08;101319.41;;;24.83;28.20
44441;BME280;30146;52.268;20.944;2023-05-27T08:17:52;101324.96;;;24.77;27.95
44441;BME280;30146;52.268;20.944;2023-05-27T08:20:38;101317.45;;;24.53;27.39
44441;BME280;30146;52.268;20.944;2023-05-27T08:23:16;101324.46;;;24.43;27.54
44441;BME280;30146;52.268;20.944;2023-05-27T08:25:48;101320.72;;;24.34;27.40
44441;BME280;30146;52.268;20.944;2023-05-27T08:28:46;101323.46;;;24.21;27.35
44441;BME280;30146;52.268;20.944;2023-05-27T08:31:28;101323.17;;;24.13;27.24
44441;BME280;30146;52.268;20.944;2023-05-27T08:34:02;101324.35;;;24.08;27.07
44441;BME280;30146;52.268;20.944;2023-05-27T08:36:36;101325.27;;;23.99;26.72
44441;BME280;30146;52.268;20.944;2023-05-27T08:39:07;101320.31;;;23.94;26.38
44441;BME280;30146;52.268;20.944;2023-05-27T08:41:45;101317.36;;;23.87;26.33
44441;BME280;30146;52.268;20.944;2023-05-27T08:44:17;101315.45;;;23.82;26.01
44441;BME280;30146;52.268;20.944;2023-05-27T08:46:58;101308.34;;;23.70;25.85
44441;BME280;30146;52.268;20.944;2023-05-27T08:49:30;101308.98;;;23.64;25.95
44441;BME280;30146;52.268;20.944;2023-05-27T08:52:03;101312.88;;;23.63;25.79
44441;BME280;30146;52.268;20.944;2023-05-27T08:54:38;101318.77;;;23.60;25.77
44441;BME280;30146;52.268;20.944;2023-05-27T08:57:11;101319.48;;;23.56;25.62
44441;BME280;30146;52.268;20.944;2023-05-27T08:59:44;101315.03;;;23.51;25.78
44441;BME280;30146;52.268;20.944;2023-05-27T09:02:15;101314.41;;;23.49;25.86
44441;BME280;30146;52.268;20.944;2023-05-27T09:04:49;101309.13;;;23.54;25.85
44441;BME280;30146;52.268;20.944;2023-05-27T09:07:20;101303.67;;;23.58;25.69
44441;BME280;30146;52.268;20.944;2023-05-27T09:09:58;101307.61;;;23.60;25.55
44441;BME280;30146;52.268;20.944;2023-05-27T09:12:29;101303.44;;;23.59;25.39
44441;BME280;30146;52.268;20.944;2023-05-27T09:15:00;101305.22;;;23.63;25.58
44441;BME280;30146;52.268;20.944;2023-05-27T09:17:31;101305.70;;;23.67;25.44
44441;BME280;30146;52.268;20.944;2023-05-27T09:20:03;101303.39;;;23.75;25.31
44441;BME280;30146;52.268;20.944;2023-05-27T09:22:38;101304.96;;;23.79;25.34
44441;BME280;30146;52.268;20.944;2023-05-27T09:25:25;101307.49;;;23.81;25.08
44441;BME280;30146;52.268;20.944;2023-05-27T09:27:56;101301.33;;;23.86;25.10
44441;BME280;30146;52.268;20.944;2023-05-27T09:30:28;101302.08;;;23.85;24.87
44441;BME280;30146;52.268;20.944;2023-05-27T09:33:03;101304.86;;;23.85;25.09
44441;BME280;30146;52.268;20.944;2023-05-27T09:35:39;101310.38;;;23.90;25.22
44441;BME280;30146;52.268;20.944;2023-05-27T09:38:11;101310.10;;;23.92;24.85
44441;BME280;30146;52.268;20.944;2023-05-27T09:40:45;101310.48;;;23.91;24.88
44441;BME280;30146;52.268;20.944;2023-05-27T09:43:19;101311.20;;;23.94;24.79
44441;BME280;30146;52.268;20.944;2023-05-27T09:45:51;101306.45;;;23.95;24.71
44441;BME280;30146;52.268;20.944;2023-05-27T09:48:27;101305.90;;;23.95;24.78
44441;BME280;30146;52.268;20.944;2023-05-27T09:51:00;101302.50;;;23.97;24.88
44441;BME280;30146;52.268;20.944;2023-05-27T09:53:32;101300.60;;;23.96;24.77
44441;BME280;30146;52.268;20.944;2023-05-27T09:56:05;101300.37;;;23.98;24.81
44441;BME280;30146;52.268;20.944;2023-05-27T09:58:36;101299.47;;;24.02;24.79
44441;BME280;30146;52.268;20.944;2023-05-27T10:01:08;101305.08;;;24.05;24.62
44441;BME280;30146;52.268;20.944;2023-05-27T10:03:42;101303.38;;;24.04;24.42
44441;BME280;30146;52.268;20.944;2023-05-27T10:06:16;101298.77;;;24.02;24.39
44441;BME280;30146;52.268;20.944;2023-05-27T10:08:47;101302.63;;;24.01;24.39
44441;BME280;30146;52.268;20.944;2023-05-27T10:11:19;101308.98;;;24.04;24.40
44441;BME280;30146;52.268;20.944;2023-05-27T10:13:51;101308.73;;;24.05;24.36
44441;BME280;30146;52.268;20.944;2023-05-27T10:16:25;101314.80;;;24.06;24.34
44441;BME280;30146;52.268;20.944;2023-05-27T10:18:57;101318.74;;;24.08;24.05
44441;BME280;30146;52.268;20.944;2023-05-27T10:21:30;101322.72;;;24.01;23.63
44441;BME280;30146;52.268;20.944;2023-05-27T10:24:04;101318.59;;;23.86;23.33
44441;BME280;30146;52.268;20.944;2023-05-27T10:26:39;101317.61;;;23.77;23.41
44441;BME280;30146;52.268;20.944;2023-05-27T10:29:10;101319.95;;;23.65;23.47
44441;BME280;30146;52.268;20.944;2023-05-27T10:31:47;101318.58;;;23.57;23.49
44441;BME280;30146;52.268;20.944;2023-05-27T10:34:23;101317.41;;;23.53;23.58
44441;BME280;30146;52.268;20.944;2023-05-27T10:37:05;101314.70;;;23.33;23.33
44441;BME280;30146;52.268;20.944;2023-05-27T10:39:37;101313.07;;;23.15;23.25
44441;BME280;30146;52.268;20.944;2023-05-27T10:42:08;101307.44;;;22.97;23.30
44441;BME280;30146;52.268;20.944;2023-05-27T10:44:41;101308.20;;;22.83;23.58
44441;BME280;30146;52.268;20.944;2023-05-27T10:47:13;101307.36;;;22.75;23.83
44441;BME280;30146;52.268;20.944;2023-05-27T10:49:48;101309.96;;;22.72;23.93
44441;BME280;30146;52.268;20.944;2023-05-27T10:52:20;101308.81;;;22.66;23.68
44441;BME280;30146;52.268;20.944;2023-05-27T10:55:00;101310.19;;;22.59;23.77
44441;BME280;30146;52.268;20.944;2023-05-27T10:57:33;101310.62;;;22.53;23.58
44441;BME280;30146;52.268;20.944;2023-05-27T11:00:06;101313.74;;;22.49;23.56
44441;BME280;30146;52.268;20.944;2023-05-27T11:02:40;101312.70;;;22.49;23.71
44441;BME280;30146;52.268;20.944;2023-05-27T11:05:13;101309.77;;;22.48;23.79
44441;BME280;30146;52.268;20.944;2023-05-27T11:07:45;101310.95;;;22.45;23.74
44441;BME280;30146;52.268;20.944;2023-05-27T11:10:16;101311.55;;;22.44;23.69
44441;BME280;30146;52.268;20.944;2023-05-27T11:12:47;101308.44;;;22.43;23.99
44441;BME280;30146;52.268;20.944;2023-05-27T11:15:19;101304.92;;;22.43;24.03
44441;BME280;30146;52.268;20.944;2023-05-27T11:17:50;101303.23;;;22.43;23.60
44441;BME280;30146;52.268;20.944;2023-05-27T11:20:22;101300.69;;;22.41;23.53
44441;BME280;30146;52.268;20.944;2023-05-27T11:22:53;101304.51;;;22.34;23.61
44441;BME280;30146;52.268;20.944;2023-05-27T11:25:24;101301.90;;;22.25;23.47
44441;BME280;30146;52.268;20.944;2023-05-27T11:27:55;101299.94;;;22.13;23.50
44441;BME280;30146;52.268;20.944;2023-05-27T11:30:26;101298.63;;;22.03;23.41
44441;BME280;30146;52.268;20.944;2023-05-27T11:33:03;101298.52;;;21.93;23.06
44441;BME280;30146;52.268;20.944;2023-05-27T11:35:34;101298.95;;;21.87;23.32
44441;BME280;30146;52.268;20.944;2023-05-27T11:38:15;101295.85;;;21.82;23.14
44441;BME280;30146;52.268;20.944;2023-05-27T11:40:46;101292.78;;;21.76;23.22
44441;BME280;30146;52.268;20.944;2023-05-27T11:43:19;101289.80;;;21.63;22.92
44441;BME280;30146;52.268;20.944;2023-05-27T11:45:50;101291.16;;;21.42;22.90
44441;BME280;30146;52.268;20.944;2023-05-27T11:48:22;101288.11;;;21.31;23.30
44441;BME280;30146;52.268;20.944;2023-05-27T11:50:53;101284.96;;;21.27;23.51
44441;BME280;30146;52.268;20.944;2023-05-27T11:53:28;101288.04;;;21.28;23.66
44441;BME280;30146;52.268;20.944;2023-05-27T11:55:59;101286.55;;;21.31;23.57
44441;BME280;30146;52.268;20.944;2023-05-27T11:58:30;101276.82;;;21.26;23.42
44441;BME280;30146;52.268;20.944;2023-05-27T12:01:01;101279.71;;;21.19;23.52
44441;BME280;30146;52.268;20.944;2023-05-27T12:03:34;101268.77;;;21.19;23.45
44441;BME280;30146;52.268;20.944;2023-05-27T12:06:06;101267.54;;;21.19;23.68
44441;BME280;30146;52.268;20.944;2023-05-27T12:08:37;101266.51;;;21.19;23.46
44441;BME280;30146;52.268;20.944;2023-05-27T12:11:08;101269.71;;;21.17;23.40
44441;BME280;30146;52.268;20.944;2023-05-27T12:13:39;101263.84;;;21.16;23.43
44441;BME280;30146;52.268;20.944;2023-05-27T12:16:11;101262.05;;;21.18;23.41
44441;BME280;30146;52.268;20.944;2023-05-27T12:18:42;101262.73;;;21.17;23.44
44441;BME280;30146;52.268;20.944;2023-05-27T12:21:14;101257.80;;;21.15;23.56
44441;BME280;30146;52.268;20.944;2023-05-27T12:23:45;101254.85;;;21.14;23.67
44441;BME280;30146;52.268;20.944;2023-05-27T12:26:17;101254.95;;;21.16;23.93
44441;BME280;30146;52.268;20.944;2023-05-27T12:28:48;101249.05;;;21.21;23.94
44441;BME280;30146;52.268;20.944;2023-05-27T12:31:20;101248.77;;;21.23;23.93
44441;BME280;30146;52.268;20.944;2023-05-27T12:33:51;101244.86;;;21.26;23.83
44441;BME280;30146;52.268;20.944;2023-05-27T12:36:22;101242.90;;;21.27;23.83
44441;BME280;30146;52.268;20.944;2023-05-27T12:38:53;101247.04;;;21.27;23.84
44441;BME280;30146;52.268;20.944;2023-05-27T12:41:24;101253.08;;;21.24;23.53
44441;BME280;30146;52.268;20.944;2023-05-27T12:43:56;101251.44;;;21.13;23.14
44441;BME280;30146;52.268;20.944;2023-05-27T12:46:27;101247.54;;;21.01;23.56
44441;BME280;30146;52.268;20.944;2023-05-27T12:48:58;101243.02;;;20.97;23.73
44441;BME280;30146;52.268;20.944;2023-05-27T12:51:29;101243.59;;;20.96;23.77
44441;BME280;30146;52.268;20.944;2023-05-27T12:54:02;101243.06;;;20.96;23.84
44441;BME280;30146;52.268;20.944;2023-05-27T12:56:33;101238.31;;;20.92;23.78
44441;BME280;30146;52.268;20.944;2023-05-27T12:59:04;101239.14;;;20.89;23.82
44441;BME280;30146;52.268;20.944;2023-05-27T13:01:36;101233.73;;;20.85;23.73
44441;BME280;30146;52.268;20.944;2023-05-27T13:04:07;101227.83;;;20.81;23.66
44441;BME280;30146;52.268;20.944;2023-05-27T13:06:38;101221.86;;;20.73;23.90
44441;BME280;30146;52.268;20.944;2023-05-27T13:09:10;101223.84;;;20.71;24.21
44441;BME280;30146;52.268;20.944;2023-05-27T13:11:42;101223.98;;;20.68;23.98
44441;BME280;30146;52.268;20.944;2023-05-27T13:14:14;101221.31;;;20.65;24.14